sensor_id;sensor_type;location;lat;lon;timestamp;P1;durP1;ratioP1;P2;durP2;ratioP2
11203;SDS011;5659;49.408;11.116;2023-05-16T00:02:17;12.83;;;10.33;;
11203;SDS011;5659;49.408;11.116;2023-05-16T00:04:43;13.57;;;10.27;;
11203;SDS011;5659;49.408;11.116;2023-05-16T00:07:10;11.83;;;10.50;;
11203;SDS011;5659;49.408;11.116;2023-05-16T00:09:36;13.27;;;10.80;;
11203;SDS011;5659;49.408;11.116;2023-05-16T00:12:02;12.23;;;10.90;;
11203;SDS011;5659;49.408;11.116;2023-05-16T00:14:28;12.20;;;11.00;;
11203;SDS011;5659;49.408;11.116;2023-05-16T00:16:54;12.83;;;11.33;;
11203;SDS011;5659;49.408;11.116;2023-05-16T00:19:23;12.60;;;11.40;;
11203;SDS011;5659;49.408;11.116;2023-05-16T00:21:50;12.53;;;11.33;;
11203;SDS011;5659;49.408;11.116;2023-05-16T00:24:17;13.50;;;12.07;;
11203;SDS011;5659;49.408;11.116;2023-05-16T00:26:43;13.90;;;11.63;;
11203;SDS011;5659;49.408;11.116;2023-05-16T00:29:09;13.40;;;11.97;;
11203;SDS011;5659;49.408;11.116;2023-05-16T00:31:35;14.07;;;12.53;;
11203;SDS011;5659;49.408;11.116;2023-05-16T00:34:01;14.83;;;12.30;;
11203;SDS011;5659;49.408;11.116;2023-05-16T00:36:27;14.83;;;12.13;;
11203;SDS011;5659;49.408;11.116;2023-05-16T00:38:53;13.53;;;12.27;;
11203;SDS011;5659;49.408;11.116;2023-05-16T00:41:19;13.60;;;12.20;;
11203;SDS011;5659;49.408;11.116;2023-05-16T00:43:45;13.40;;;12.00;;
11203;SDS011;5659;49.408;11.116;2023-05-16T00:46:11;13.70;;;12.37;;
11203;SDS011;5659;49.408;11.116;2023-05-16T00:48:37;13.50;;;12.10;;
11203;SDS011;5659;49.408;11.116;2023-05-16T00:51:03;13.80;;;12.33;;
11203;SDS011;5659;49.408;11.116;2023-05-16T00:53:33;13.40;;;12.10;;
11203;SDS011;5659;49.408;11.116;2023-05-16T00:55:59;13.93;;;12.53;;
11203;SDS011;5659;49.408;11.116;2023-05-16T00:58:25;15.50;;;13.23;;
11203;SDS011;5659;49.408;11.116;2023-05-16T01:00:51;15.50;;;13.93;;
11203;SDS011;5659;49.408;11.116;2023-05-16T01:03:17;15.30;;;13.57;;
11203;SDS011;5659;49.408;11.116;2023-05-16T01:05:43;14.70;;;13.10;;
11203;SDS011;5659;49.408;11.116;2023-05-16T01:08:09;17.70;;;13.37;;
11203;SDS011;5659;49.408;11.116;2023-05-16T01:10:38;15.33;;;13.33;;
11203;SDS011;5659;49.408;11.116;2023-05-16T01:13:08;15.80;;;14.10;;
11203;SDS011;5659;49.408;11.116;2023-05-16T01:15:46;15.30;;;13.70;;
11203;SDS011;5659;49.408;11.116;2023-05-16T01:18:28;14.73;;;13.27;;
11203;SDS011;5659;49.408;11.116;2023-05-16T01:20:58;15.17;;;13.60;;
11203;SDS011;5659;49.408;11.116;2023-05-16T01:26:07;16.50;;;14.67;;
11203;SDS011;5659;49.408;11.116;2023-05-16T01:28:34;18.53;;;15.20;;
11203;SDS011;5659;49.408;11.116;2023-05-16T01:31:00;18.80;;;15.87;;
11203;SDS011;5659;49.408;11.116;2023-05-16T01:33:27;18.27;;;15.30;;
11203;SDS011;5659;49.408;11.116;2023-05-16T01:36:10;17.67;;;15.77;;
11203;SDS011;5659;49.408;11.116;2023-05-16T01:44:04;23.87;;;15.37;;
11203;SDS011;5659;49.408;11.116;2023-05-16T01:46:33;17.50;;;15.60;;
11203;SDS011;5659;49.408;11.116;2023-05-16T01:49:15;19.57;;;16.57;;
11203;SDS011;5659;49.408;11.116;2023-05-16T01:51:47;19.53;;;15.13;;
11203;SDS011;5659;49.408;11.116;2023-05-16T01:54:15;22.23;;;17.20;;
11203;SDS011;5659;49.408;11.116;2023-05-16T01:56:43;18.57;;;16.40;;
11203;SDS011;5659;49.408;11.116;2023-05-16T01:59:12;19.77;;;16.13;;
11203;SDS011;5659;49.408;11.116;2023-05-16T02:01:38;17.60;;;15.80;;
11203;SDS011;5659;49.408;11.116;2023-05-16T02:04:04;20.93;;;16.40;;
11203;SDS011;5659;49.408;11.116;2023-05-16T02:06:30;19.27;;;15.47;;
11203;SDS011;5659;49.408;11.116;2023-05-16T02:08:56;19.80;;;15.60;;
11203;SDS011;5659;49.408;11.116;2023-05-16T02:11:22;21.47;;;15.60;;
11203;SDS011;5659;49.408;11.116;2023-05-16T02:13:48;16.53;;;14.77;;
11203;SDS011;5659;49.408;11.116;2023-05-16T02:16:14;17.40;;;15.53;;
11203;SDS011;5659;49.408;11.116;2023-05-16T02:18:40;17.83;;;14.37;;
11203;SDS011;5659;49.408;11.116;2023-05-16T02:21:06;16.63;;;14.27;;
11203;SDS011;5659;49.408;11.116;2023-05-16T02:23:32;17.43;;;15.00;;
11203;SDS011;5659;49.408;11.116;2023-05-16T02:25:58;15.57;;;13.80;;
11203;SDS011;5659;49.408;11.116;2023-05-16T02:28:24;16.27;;;13.93;;
11203;SDS011;5659;49.408;11.116;2023-05-16T02:30:57;15.43;;;13.83;;
11203;SDS011;5659;49.408;11.116;2023-05-16T02:33:24;15.57;;;13.83;;
11203;SDS011;5659;49.408;11.116;2023-05-16T02:35:51;15.57;;;14.00;;
11203;SDS011;5659;49.408;11.116;2023-05-16T02:38:16;16.37;;;14.30;;
11203;SDS011;5659;49.408;11.116;2023-05-16T02:40:44;15.13;;;13.13;;
11203;SDS011;5659;49.408;11.116;2023-05-16T02:43:10;16.23;;;14.20;;
11203;SDS011;5659;49.408;11.116;2023-05-16T02:45:36;16.60;;;14.90;;
11203;SDS011;5659;49.408;11.116;2023-05-16T02:48:02;20.07;;;14.80;;
11203;SDS011;5659;49.408;11.116;2023-05-16T02:50:28;16.43;;;14.73;;
11203;SDS011;5659;49.408;11.116;2023-05-16T02:52:54;15.90;;;13.87;;
11203;SDS011;5659;49.408;11.116;2023-05-16T02:55:20;16.33;;;14.60;;
11203;SDS011;5659;49.408;11.116;2023-05-16T02:57:46;19.17;;;15.43;;
11203;SDS011;5659;49.408;11.116;2023-05-16T03:00:12;16.93;;;14.67;;
11203;SDS011;5659;49.408;11.116;2023-05-16T03:02:39;17.97;;;15.47;;
11203;SDS011;5659;49.408;11.116;2023-05-16T03:05:05;19.07;;;15.77;;
11203;SDS011;5659;49.408;11.116;2023-05-16T03:07:31;17.00;;;15.13;;
11203;SDS011;5659;49.408;11.116;2023-05-16T03:09:57;19.27;;;15.60;;
11203;SDS011;5659;49.408;11.116;2023-05-16T03:12:23;19.80;;;16.40;;
11203;SDS011;5659;49.408;11.116;2023-05-16T03:14:48;19.13;;;15.33;;
11203;SDS011;5659;49.408;11.116;2023-05-16T03:17:15;21.87;;;15.80;;
11203;SDS011;5659;49.408;11.116;2023-05-16T03:19:41;24.27;;;16.63;;
11203;SDS011;5659;49.408;11.116;2023-05-16T03:22:07;18.67;;;15.63;;
11203;SDS011;5659;49.408;11.116;2023-05-16T03:24:33;17.70;;;15.90;;
11203;SDS011;5659;49.408;11.116;2023-05-16T03:26:59;20.37;;;16.40;;
11203;SDS011;5659;49.408;11.116;2023-05-16T03:29:27;18.80;;;16.50;;
11203;SDS011;5659;49.408;11.116;2023-05-16T03:31:53;18.23;;;15.33;;
11203;SDS011;5659;49.408;11.116;2023-05-16T03:34:19;19.80;;;16.23;;
11203;SDS011;5659;49.408;11.116;2023-05-16T03:36:46;19.33;;;16.37;;
11203;SDS011;5659;49.408;11.116;2023-05-16T03:39:12;20.70;;;17.07;;
11203;SDS011;5659;49.408;11.116;2023-05-16T03:41:38;18.83;;;16.27;;
11203;SDS011;5659;49.408;11.116;2023-05-16T03:44:04;17.83;;;15.93;;
11203;SDS011;5659;49.408;11.116;2023-05-16T03:46:30;19.13;;;15.83;;
11203;SDS011;5659;49.408;11.116;2023-05-16T03:48:56;20.80;;;15.37;;
11203;SDS011;5659;49.408;11.116;2023-05-16T03:51:22;17.40;;;15.50;;
11203;SDS011;5659;49.408;11.116;2023-05-16T03:53:48;20.37;;;14.77;;
11203;SDS011;5659;49.408;11.116;2023-05-16T03:56:14;17.63;;;14.33;;
11203;SDS011;5659;49.408;11.116;2023-05-16T03:58:40;17.73;;;14.97;;
11203;SDS011;5659;49.408;11.116;2023-05-16T04:01:06;15.40;;;13.90;;
11203;SDS011;5659;49.408;11.116;2023-05-16T04:03:32;20.43;;;14.50;;
11203;SDS011;5659;49.408;11.116;2023-05-16T04:05:58;15.97;;;14.13;;
11203;SDS011;5659;49.408;11.116;2023-05-16T04:08:24;15.17;;;13.67;;
11203;SDS011;5659;49.408;11.116;2023-05-16T04:10:50;17.77;;;14.50;;
11203;SDS011;5659;49.408;11.116;2023-05-16T04:13:16;17.27;;;14.30;;
11203;SDS011;5659;49.408;11.116;2023-05-16T04:15:42;15.97;;;14.03;;
11203;SDS011;5659;49.408;11.116;2023-05-16T04:18:08;16.87;;;14.27;;
11203;SDS011;5659;49.408;11.116;2023-05-16T04:20:34;15.77;;;13.77;;
11203;SDS011;5659;49.408;11.116;2023-05-16T04:23:01;14.90;;;13.40;;
11203;SDS011;5659;49.408;11.116;2023-05-16T04:25:27;18.20;;;13.53;;
11203;SDS011;5659;49.408;11.116;2023-05-16T04:27:52;16.20;;;14.50;;
11203;SDS011;5659;49.408;11.116;2023-05-16T04:30:18;16.00;;;13.53;;
11203;SDS011;5659;49.408;11.116;2023-05-16T04:32:44;18.47;;;14.40;;
11203;SDS011;5659;49.408;11.116;2023-05-16T04:35:10;16.17;;;14.10;;
11203;SDS011;5659;49.408;11.116;2023-05-16T04:37:37;16.47;;;14.77;;
11203;SDS011;5659;49.408;11.116;2023-05-16T04:40:03;15.90;;;14.03;;
11203;SDS011;5659;49.408;11.116;2023-05-16T04:42:30;16.03;;;13.93;;
11203;SDS011;5659;49.408;11.116;2023-05-16T04:44:56;16.43;;;14.70;;
11203;SDS011;5659;49.408;11.116;2023-05-16T04:47:22;14.83;;;13.20;;
11203;SDS011;5659;49.408;11.116;2023-05-16T04:49:48;109.00;;;21.30;;
11203;SDS011;5659;49.408;11.116;2023-05-16T04:52:15;148.90;;;22.33;;
11203;SDS011;5659;49.408;11.116;2023-05-16T04:54:41;126.17;;;20.50;;
11203;SDS011;5659;49.408;11.116;2023-05-16T04:57:06;277.40;;;29.30;;
11203;SDS011;5659;49.408;11.116;2023-05-16T04:59:32;156.17;;;24.40;;
11203;SDS011;5659;49.408;11.116;2023-05-16T05:01:58;57.37;;;16.80;;
11203;SDS011;5659;49.408;11.116;2023-05-16T05:04:24;42.97;;;15.47;;
11203;SDS011;5659;49.408;11.116;2023-05-16T05:06:50;28.00;;;13.47;;
11203;SDS011;5659;49.408;11.116;2023-05-16T05:09:16;21.80;;;14.00;;
11203;SDS011;5659;49.408;11.116;2023-05-16T05:11:42;18.50;;;13.20;;
11203;SDS011;5659;49.408;11.116;2023-05-16T05:14:08;16.17;;;12.00;;
11203;SDS011;5659;49.408;11.116;2023-05-16T05:16:34;13.40;;;11.40;;
11203;SDS011;5659;49.408;11.116;2023-05-16T05:19:01;14.63;;;12.23;;
11203;SDS011;5659;49.408;11.116;2023-05-16T05:21:27;13.17;;;11.07;;
11203;SDS011;5659;49.408;11.116;2023-05-16T05:23:54;12.90;;;11.50;;
11203;SDS011;5659;49.408;11.116;2023-05-16T05:26:21;13.90;;;11.27;;
11203;SDS011;5659;49.408;11.116;2023-05-16T05:28:47;14.30;;;12.20;;
11203;SDS011;5659;49.408;11.116;2023-05-16T05:31:14;13.57;;;12.07;;
11203;SDS011;5659;49.408;11.116;2023-05-16T05:33:40;12.40;;;11.10;;
11203;SDS011;5659;49.408;11.116;2023-05-16T05:36:06;15.07;;;11.50;;
11203;SDS011;5659;49.408;11.116;2023-05-16T05:38:32;14.57;;;10.87;;
11203;SDS011;5659;49.408;11.116;2023-05-16T05:40:58;13.23;;;11.07;;
11203;SDS011;5659;49.408;11.116;2023-05-16T05:43:24;11.83;;;10.73;;
11203;SDS011;5659;49.408;11.116;2023-05-16T05:45:50;12.50;;;10.57;;
11203;SDS011;5659;49.408;11.116;2023-05-16T05:48:16;13.30;;;11.18;;
11203;SDS011;5659;49.408;11.116;2023-05-16T05:50:43;13.88;;;10.82;;
11203;SDS011;5659;49.408;11.116;2023-05-16T05:53:09;14.60;;;9.95;;
11203;SDS011;5659;49.408;11.116;2023-05-16T05:55:35;13.45;;;10.95;;
11203;SDS011;5659;49.408;11.116;2023-05-16T05:58:01;28.38;;;11.77;;
11203;SDS011;5659;49.408;11.116;2023-05-16T06:00:27;15.00;;;12.23;;
11203;SDS011;5659;49.408;11.116;2023-05-16T06:02:53;13.07;;;11.35;;
11203;SDS011;5659;49.408;11.116;2023-05-16T06:05:19;13.35;;;11.25;;
11203;SDS011;5659;49.408;11.116;2023-05-16T06:07:45;13.00;;;11.68;;
11203;SDS011;5659;49.408;11.116;2023-05-16T06:10:11;13.02;;;11.13;;
11203;SDS011;5659;49.408;11.116;2023-05-16T06:12:37;16.05;;;10.75;;
11203;SDS011;5659;49.408;11.116;2023-05-16T06:15:03;16.95;;;10.73;;
11203;SDS011;5659;49.408;11.116;2023-05-16T06:17:29;18.15;;;10.38;;
11203;SDS011;5659;49.408;11.116;2023-05-16T06:19:55;11.35;;;10.20;;
11203;SDS011;5659;49.408;11.116;2023-05-16T06:22:21;13.95;;;9.45;;
11203;SDS011;5659;49.408;11.116;2023-05-16T06:24:47;15.98;;;10.77;;
11203;SDS011;5659;49.408;11.116;2023-05-16T06:27:13;14.32;;;9.32;;
11203;SDS011;5659;49.408;11.116;2023-05-16T06:29:39;16.27;;;10.23;;
11203;SDS011;5659;49.408;11.116;2023-05-16T06:32:05;13.40;;;9.60;;
11203;SDS011;5659;49.408;11.116;2023-05-16T06:34:31;13.65;;;10.00;;
11203;SDS011;5659;49.408;11.116;2023-05-16T06:36:57;11.35;;;8.80;;
11203;SDS011;5659;49.408;11.116;2023-05-16T06:39:23;9.70;;;8.80;;
11203;SDS011;5659;49.408;11.116;2023-05-16T06:41:50;12.25;;;8.82;;
11203;SDS011;5659;49.408;11.116;2023-05-16T06:44:16;13.18;;;9.00;;
11203;SDS011;5659;49.408;11.116;2023-05-16T06:46:42;12.75;;;8.40;;
11203;SDS011;5659;49.408;11.116;2023-05-16T06:49:07;10.75;;;8.88;;
11203;SDS011;5659;49.408;11.116;2023-05-16T06:51:33;13.07;;;8.98;;
11203;SDS011;5659;49.408;11.116;2023-05-16T06:53:59;11.77;;;9.05;;
11203;SDS011;5659;49.408;11.116;2023-05-16T06:56:25;12.38;;;9.32;;
11203;SDS011;5659;49.408;11.116;2023-05-16T06:58:52;10.10;;;8.75;;
11203;SDS011;5659;49.408;11.116;2023-05-16T07:01:18;10.43;;;8.93;;
11203;SDS011;5659;49.408;11.116;2023-05-16T07:03:44;11.38;;;8.73;;
11203;SDS011;5659;49.408;11.116;2023-05-16T07:06:10;13.15;;;8.80;;
11203;SDS011;5659;49.408;11.116;2023-05-16T07:08:36;10.05;;;8.25;;
11203;SDS011;5659;49.408;11.116;2023-05-16T07:11:02;11.82;;;8.50;;
11203;SDS011;5659;49.408;11.116;2023-05-16T07:13:28;10.00;;;8.50;;
11203;SDS011;5659;49.408;11.116;2023-05-16T07:15:54;14.93;;;8.18;;
11203;SDS011;5659;49.408;11.116;2023-05-16T07:18:20;10.82;;;8.70;;
11203;SDS011;5659;49.408;11.116;2023-05-16T07:20:46;15.23;;;7.72;;
11203;SDS011;5659;49.408;11.116;2023-05-16T07:23:12;13.65;;;8.13;;
11203;SDS011;5659;49.408;11.116;2023-05-16T07:25:38;9.77;;;8.23;;
11203;SDS011;5659;49.408;11.116;2023-05-16T07:28:05;10.23;;;7.95;;
11203;SDS011;5659;49.408;11.116;2023-05-16T07:30:31;11.13;;;8.23;;
11203;SDS011;5659;49.408;11.116;2023-05-16T07:32:57;9.30;;;8.18;;
11203;SDS011;5659;49.408;11.116;2023-05-16T07:35:23;8.38;;;7.57;;
11203;SDS011;5659;49.408;11.116;2023-05-16T07:37:49;9.38;;;7.10;;
11203;SDS011;5659;49.408;11.116;2023-05-16T07:40:15;8.30;;;7.47;;
11203;SDS011;5659;49.408;11.116;2023-05-16T07:42:42;10.48;;;6.90;;
11203;SDS011;5659;49.408;11.116;2023-05-16T07:45:08;9.93;;;7.47;;
11203;SDS011;5659;49.408;11.116;2023-05-16T07:47:34;8.00;;;7.10;;
11203;SDS011;5659;49.408;11.116;2023-05-16T07:50:00;9.18;;;7.13;;
11203;SDS011;5659;49.408;11.116;2023-05-16T07:52:26;8.20;;;6.90;;
11203;SDS011;5659;49.408;11.116;2023-05-16T07:54:52;8.82;;;6.57;;
11203;SDS011;5659;49.408;11.116;2023-05-16T07:57:18;10.38;;;7.28;;
11203;SDS011;5659;49.408;11.116;2023-05-16T07:59:44;11.65;;;6.88;;
11203;SDS011;5659;49.408;11.116;2023-05-16T08:02:10;10.57;;;7.15;;
11203;SDS011;5659;49.408;11.116;2023-05-16T08:04:37;8.02;;;6.85;;
11203;SDS011;5659;49.408;11.116;2023-05-16T08:07:03;10.40;;;7.13;;
11203;SDS011;5659;49.408;11.116;2023-05-16T08:09:29;8.45;;;6.80;;
11203;SDS011;5659;49.408;11.116;2023-05-16T08:11:55;11.57;;;6.68;;
11203;SDS011;5659;49.408;11.116;2023-05-16T08:14:21;8.68;;;6.50;;
11203;SDS011;5659;49.408;11.116;2023-05-16T08:16:47;11.18;;;7.03;;
11203;SDS011;5659;49.408;11.116;2023-05-16T08:19:13;9.80;;;7.35;;
11203;SDS011;5659;49.408;11.116;2023-05-16T08:21:39;11.32;;;7.10;;
11203;SDS011;5659;49.408;11.116;2023-05-16T08:24:07;12.23;;;8.10;;
11203;SDS011;5659;49.408;11.116;2023-05-16T08:26:42;8.05;;;7.00;;
11203;SDS011;5659;49.408;11.116;2023-05-16T08:29:08;9.65;;;6.82;;
11203;SDS011;5659;49.408;11.116;2023-05-16T08:31:34;13.98;;;7.65;;
11203;SDS011;5659;49.408;11.116;2023-05-16T08:34:00;9.98;;;6.55;;
11203;SDS011;5659;49.408;11.116;2023-05-16T08:36:26;7.28;;;6.57;;
11203;SDS011;5659;49.408;11.116;2023-05-16T08:38:52;8.85;;;6.82;;
11203;SDS011;5659;49.408;11.116;2023-05-16T08:41:18;7.40;;;5.57;;
11203;SDS011;5659;49.408;11.116;2023-05-16T08:43:45;8.40;;;6.63;;
11203;SDS011;5659;49.408;11.116;2023-05-16T08:46:11;11.73;;;5.97;;
11203;SDS011;5659;49.408;11.116;2023-05-16T08:48:37;7.70;;;5.35;;
11203;SDS011;5659;49.408;11.116;2023-05-16T08:51:07;8.38;;;5.65;;
11203;SDS011;5659;49.408;11.116;2023-05-16T08:53:43;9.45;;;5.40;;
11203;SDS011;5659;49.408;11.116;2023-05-16T08:56:10;5.97;;;5.43;;
11203;SDS011;5659;49.408;11.116;2023-05-16T08:58:37;7.07;;;5.10;;
11203;SDS011;5659;49.408;11.116;2023-05-16T09:01:04;7.03;;;5.28;;
11203;SDS011;5659;49.408;11.116;2023-05-16T09:03:34;13.35;;;5.40;;
11203;SDS011;5659;49.408;11.116;2023-05-16T09:06:00;7.75;;;5.35;;
11203;SDS011;5659;49.408;11.116;2023-05-16T09:08:26;6.72;;;5.07;;
11203;SDS011;5659;49.408;11.116;2023-05-16T09:10:52;7.85;;;5.63;;
11203;SDS011;5659;49.408;11.116;2023-05-16T09:13:18;7.10;;;5.18;;
11203;SDS011;5659;49.408;11.116;2023-05-16T09:15:43;6.82;;;5.32;;
11203;SDS011;5659;49.408;11.116;2023-05-16T09:18:13;7.68;;;5.30;;
11203;SDS011;5659;49.408;11.116;2023-05-16T09:20:42;7.07;;;5.47;;
11203;SDS011;5659;49.408;11.116;2023-05-16T09:23:10;6.47;;;5.30;;
11203;SDS011;5659;49.408;11.116;2023-05-16T09:25:36;6.53;;;4.40;;
11203;SDS011;5659;49.408;11.116;2023-05-16T09:28:05;6.97;;;4.57;;
11203;SDS011;5659;49.408;11.116;2023-05-16T09:30:35;6.60;;;4.60;;
11203;SDS011;5659;49.408;11.116;2023-05-16T09:33:05;8.00;;;5.68;;
11203;SDS011;5659;49.408;11.116;2023-05-16T09:35:31;6.45;;;5.47;;
11203;SDS011;5659;49.408;11.116;2023-05-16T09:37:57;7.25;;;5.40;;
11203;SDS011;5659;49.408;11.116;2023-05-16T09:40:23;11.98;;;6.50;;
11203;SDS011;5659;49.408;11.116;2023-05-16T09:43:02;12.32;;;6.82;;
11203;SDS011;5659;49.408;11.116;2023-05-16T09:45:29;8.40;;;7.43;;
11203;SDS011;5659;49.408;11.116;2023-05-16T09:48:11;12.75;;;8.48;;
11203;SDS011;5659;49.408;11.116;2023-05-16T09:50:37;10.43;;;8.20;;
11203;SDS011;5659;49.408;11.116;2023-05-16T09:53:03;13.02;;;8.80;;
11203;SDS011;5659;49.408;11.116;2023-05-16T09:55:29;10.18;;;9.10;;
11203;SDS011;5659;49.408;11.116;2023-05-16T09:57:55;9.95;;;7.97;;
11203;SDS011;5659;49.408;11.116;2023-05-16T10:00:22;10.13;;;8.93;;
11203;SDS011;5659;49.408;11.116;2023-05-16T10:02:53;14.60;;;8.75;;
11203;SDS011;5659;49.408;11.116;2023-05-16T10:05:20;14.60;;;9.13;;
11203;SDS011;5659;49.408;11.116;2023-05-16T10:07:47;14.35;;;8.63;;
11203;SDS011;5659;49.408;11.116;2023-05-16T10:10:13;10.90;;;7.88;;
11203;SDS011;5659;49.408;11.116;2023-05-16T10:12:39;10.82;;;8.40;;
11203;SDS011;5659;49.408;11.116;2023-05-16T10:15:05;13.80;;;8.60;;
11203;SDS011;5659;49.408;11.116;2023-05-16T10:17:35;13.65;;;7.53;;
11203;SDS011;5659;49.408;11.116;2023-05-16T10:20:05;9.35;;;6.80;;
11203;SDS011;5659;49.408;11.116;2023-05-16T10:22:34;10.82;;;7.22;;
11203;SDS011;5659;49.408;11.116;2023-05-16T10:27:41;10.80;;;6.75;;
11203;SDS011;5659;49.408;11.116;2023-05-16T10:30:08;7.47;;;6.35;;
11203;SDS011;5659;49.408;11.116;2023-05-16T10:32:35;8.10;;;5.55;;
11203;SDS011;5659;49.408;11.116;2023-05-16T10:35:01;6.53;;;5.15;;
11203;SDS011;5659;49.408;11.116;2023-05-16T10:37:28;6.15;;;5.55;;
11203;SDS011;5659;49.408;11.116;2023-05-16T10:39:55;6.68;;;5.20;;
11203;SDS011;5659;49.408;11.116;2023-05-16T10:42:25;6.97;;;6.13;;
11203;SDS011;5659;49.408;11.116;2023-05-16T10:44:54;9.07;;;5.47;;
11203;SDS011;5659;49.408;11.116;2023-05-16T10:47:20;8.75;;;5.13;;
11203;SDS011;5659;49.408;11.116;2023-05-16T10:49:46;9.25;;;5.47;;
11203;SDS011;5659;49.408;11.116;2023-05-16T10:52:12;7.72;;;5.20;;
11203;SDS011;5659;49.408;11.116;2023-05-16T10:54:42;7.90;;;5.15;;
11203;SDS011;5659;49.408;11.116;2023-05-16T10:57:09;7.38;;;4.70;;
11203;SDS011;5659;49.408;11.116;2023-05-16T10:59:45;7.32;;;4.15;;
11203;SDS011;5659;49.408;11.116;2023-05-16T11:02:22;12.30;;;4.50;;
11203;SDS011;5659;49.408;11.116;2023-05-16T11:04:48;5.85;;;4.38;;
11203;SDS011;5659;49.408;11.116;2023-05-16T11:07:19;4.75;;;4.30;;
11203;SDS011;5659;49.408;11.116;2023-05-16T11:09:45;5.05;;;4.10;;
11203;SDS011;5659;49.408;11.116;2023-05-16T11:12:19;12.35;;;4.43;;
11203;SDS011;5659;49.408;11.116;2023-05-16T11:14:45;7.40;;;3.80;;
11203;SDS011;5659;49.408;11.116;2023-05-16T11:17:22;8.00;;;4.65;;
11203;SDS011;5659;49.408;11.116;2023-05-16T11:19:55;12.68;;;4.22;;
11203;SDS011;5659;49.408;11.116;2023-05-16T11:22:25;8.30;;;4.40;;
11203;SDS011;5659;49.408;11.116;2023-05-16T11:24:56;6.47;;;4.32;;
11203;SDS011;5659;49.408;11.116;2023-05-16T11:32:30;7.10;;;4.45;;
11203;SDS011;5659;49.408;11.116;2023-05-16T11:34:56;8.52;;;4.30;;
11203;SDS011;5659;49.408;11.116;2023-05-16T11:37:22;7.07;;;4.20;;
11203;SDS011;5659;49.408;11.116;2023-05-16T11:39:48;8.18;;;4.18;;
11203;SDS011;5659;49.408;11.116;2023-05-16T11:42:14;8.95;;;4.25;;
11203;SDS011;5659;49.408;11.116;2023-05-16T11:44:42;7.70;;;4.25;;
11203;SDS011;5659;49.408;11.116;2023-05-16T11:47:08;6.55;;;4.60;;
11203;SDS011;5659;49.408;11.116;2023-05-16T11:49:34;6.55;;;4.35;;
11203;SDS011;5659;49.408;11.116;2023-05-16T11:52:00;7.35;;;5.28;;
11203;SDS011;5659;49.408;11.116;2023-05-16T11:54:26;7.15;;;4.55;;
11203;SDS011;5659;49.408;11.116;2023-05-16T11:56:53;7.75;;;3.90;;
11203;SDS011;5659;49.408;11.116;2023-05-16T11:59:19;5.68;;;3.90;;
11203;SDS011;5659;49.408;11.116;2023-05-16T12:01:45;9.82;;;4.07;;
11203;SDS011;5659;49.408;11.116;2023-05-16T12:04:15;7.18;;;3.30;;
11203;SDS011;5659;49.408;11.116;2023-05-16T12:06:41;5.88;;;3.88;;
11203;SDS011;5659;49.408;11.116;2023-05-16T12:09:12;6.03;;;4.22;;
11203;SDS011;5659;49.408;11.116;2023-05-16T12:11:40;7.35;;;4.55;;
11203;SDS011;5659;49.408;11.116;2023-05-16T12:14:06;5.97;;;3.90;;
11203;SDS011;5659;49.408;11.116;2023-05-16T12:16:33;9.00;;;3.60;;
11203;SDS011;5659;49.408;11.116;2023-05-16T12:19:01;6.72;;;3.95;;
11203;SDS011;5659;49.408;11.116;2023-05-16T12:21:28;5.00;;;3.58;;
11203;SDS011;5659;49.408;11.116;2023-05-16T12:23:55;3.40;;;2.85;;
11203;SDS011;5659;49.408;11.116;2023-05-16T12:26:26;4.18;;;3.42;;
11203;SDS011;5659;49.408;11.116;2023-05-16T12:28:55;3.72;;;3.10;;
11203;SDS011;5659;49.408;11.116;2023-05-16T12:31:24;7.13;;;2.85;;
11203;SDS011;5659;49.408;11.116;2023-05-16T12:33:54;4.25;;;3.00;;
11203;SDS011;5659;49.408;11.116;2023-05-16T12:36:20;3.83;;;3.10;;
11203;SDS011;5659;49.408;11.116;2023-05-16T12:38:46;3.60;;;2.97;;
11203;SDS011;5659;49.408;11.116;2023-05-16T12:41:19;4.07;;;3.33;;
11203;SDS011;5659;49.408;11.116;2023-05-16T12:43:45;3.15;;;2.90;;
11203;SDS011;5659;49.408;11.116;2023-05-16T12:46:11;5.97;;;3.40;;
11203;SDS011;5659;49.408;11.116;2023-05-16T12:48:37;3.90;;;3.55;;
11203;SDS011;5659;49.408;11.116;2023-05-16T12:51:17;8.68;;;3.47;;
11203;SDS011;5659;49.408;11.116;2023-05-16T12:53:43;5.57;;;3.53;;
11203;SDS011;5659;49.408;11.116;2023-05-16T12:56:13;6.10;;;3.97;;
11203;SDS011;5659;49.408;11.116;2023-05-16T12:58:40;4.32;;;3.92;;
11203;SDS011;5659;49.408;11.116;2023-05-16T13:01:06;5.97;;;3.50;;
11203;SDS011;5659;49.408;11.116;2023-05-16T13:03:32;4.40;;;4.00;;
11203;SDS011;5659;49.408;11.116;2023-05-16T13:05:58;7.63;;;3.83;;
11203;SDS011;5659;49.408;11.116;2023-05-16T13:08:25;4.95;;;3.65;;
11203;SDS011;5659;49.408;11.116;2023-05-16T13:10:51;9.23;;;4.00;;
11203;SDS011;5659;49.408;11.116;2023-05-16T13:13:17;5.30;;;4.30;;
11203;SDS011;5659;49.408;11.116;2023-05-16T13:15:43;7.65;;;4.05;;
11203;SDS011;5659;49.408;11.116;2023-05-16T13:18:10;6.47;;;3.92;;
11203;SDS011;5659;49.408;11.116;2023-05-16T13:20:36;6.88;;;4.70;;
11203;SDS011;5659;49.408;11.116;2023-05-16T13:23:02;5.38;;;4.03;;
11203;SDS011;5659;49.408;11.116;2023-05-16T13:25:29;5.07;;;3.97;;
11203;SDS011;5659;49.408;11.116;2023-05-16T13:27:55;4.20;;;3.75;;
11203;SDS011;5659;49.408;11.116;2023-05-16T13:30:21;5.03;;;4.05;;
11203;SDS011;5659;49.408;11.116;2023-05-16T13:32:48;5.88;;;4.10;;
11203;SDS011;5659;49.408;11.116;2023-05-16T13:35:14;7.43;;;4.50;;
11203;SDS011;5659;49.408;11.116;2023-05-16T13:37:40;10.35;;;4.20;;
11203;SDS011;5659;49.408;11.116;2023-05-16T13:40:07;7.90;;;4.03;;
11203;SDS011;5659;49.408;11.116;2023-05-16T13:42:34;5.63;;;4.20;;
11203;SDS011;5659;49.408;11.116;2023-05-16T13:45:01;4.95;;;4.43;;
11203;SDS011;5659;49.408;11.116;2023-05-16T13:47:27;5.90;;;3.65;;
11203;SDS011;5659;49.408;11.116;2023-05-16T13:49:53;6.05;;;4.53;;
11203;SDS011;5659;49.408;11.116;2023-05-16T13:52:19;4.82;;;4.28;;
11203;SDS011;5659;49.408;11.116;2023-05-16T13:54:45;5.18;;;3.58;;
11203;SDS011;5659;49.408;11.116;2023-05-16T13:57:11;6.38;;;3.83;;
11203;SDS011;5659;49.408;11.116;2023-05-16T13:59:37;8.82;;;4.20;;
11203;SDS011;5659;49.408;11.116;2023-05-16T14:02:03;4.00;;;3.50;;
11203;SDS011;5659;49.408;11.116;2023-05-16T14:04:29;9.38;;;3.53;;
11203;SDS011;5659;49.408;11.116;2023-05-16T14:06:55;4.72;;;3.58;;
11203;SDS011;5659;49.408;11.116;2023-05-16T14:09:22;4.50;;;3.33;;
11203;SDS011;5659;49.408;11.116;2023-05-16T14:11:48;3.97;;;3.40;;
11203;SDS011;5659;49.408;11.116;2023-05-16T14:14:14;4.57;;;2.92;;
11203;SDS011;5659;49.408;11.116;2023-05-16T14:16:40;5.28;;;3.10;;
11203;SDS011;5659;49.408;11.116;2023-05-16T14:19:10;5.03;;;2.65;;
11203;SDS011;5659;49.408;11.116;2023-05-16T14:21:36;3.03;;;2.50;;
11203;SDS011;5659;49.408;11.116;2023-05-16T14:24:02;5.55;;;2.47;;
11203;SDS011;5659;49.408;11.116;2023-05-16T14:26:28;5.53;;;2.65;;
11203;SDS011;5659;49.408;11.116;2023-05-16T14:28:56;5.03;;;2.38;;
11203;SDS011;5659;49.408;11.116;2023-05-16T14:31:22;4.15;;;2.17;;
11203;SDS011;5659;49.408;11.116;2023-05-16T14:33:48;4.38;;;2.60;;
11203;SDS011;5659;49.408;11.116;2023-05-16T14:36:14;5.80;;;2.60;;
11203;SDS011;5659;49.408;11.116;2023-05-16T14:38:40;9.85;;;2.58;;
11203;SDS011;5659;49.408;11.116;2023-05-16T14:41:06;4.28;;;2.20;;
11203;SDS011;5659;49.408;11.116;2023-05-16T14:43:32;3.80;;;2.30;;
11203;SDS011;5659;49.408;11.116;2023-05-16T14:45:58;2.95;;;2.20;;
11203;SDS011;5659;49.408;11.116;2023-05-16T14:48:24;3.50;;;2.50;;